Time;durP1;ratioP1;P1;durP2;ratioP2;P2;SDS_P1;SDS_P2;PMS_P1;PMS_P2;Temp;Humidity;BMP_temperature;BMP_pressure;BME280_temperature;BME280_humidity;BME280_pressure;Samples;Min_cycle;Max_cycle;Signal;HPM_P1;HPM_P2
2023/08/24 00:01:46;;;;;;;3.47;3.28;;;20.10;99.90;;;20.15;84.64;101689.28;5034662;28;20049;-74
2023/08/24 00:04:14;;;;;;;2.58;2.47;;;19.80;99.90;;;20.13;85.44;101675.03;5045164;28;20049;-73
2023/08/24 00:06:44;;;;;;;3.10;3.00;;;19.70;99.90;;;20.33;84.94;101683.38;5042783;28;20049;-73
2023/08/24 00:09:12;;;;;;;2.85;2.75;;;19.90;99.90;;;20.29;84.84;101679.03;5043907;28;20076;-74
2023/08/24 00:11:41;;;;;;;2.58;2.47;;;19.90;99.90;;;20.40;85.60;101694.84;5043736;28;20046;-73
2023/08/24 00:14:10;;;;;;;2.42;2.33;;;20.00;99.90;;;20.45;85.12;101691.06;5043294;28;20052;-74
2023/08/24 00:16:38;;;;;;;2.50;2.40;;;20.00;99.90;;;20.72;84.55;101689.28;5044140;28;20135;-73
2023/08/24 00:19:06;;;;;;;2.58;2.47;;;20.30;99.90;;;20.84;83.55;101693.38;5042141;28;20483;-74
2023/08/24 00:21:35;;;;;;;2.60;2.50;;;20.40;99.90;;;20.94;82.83;101686.75;5045457;28;20049;-73
2023/08/24 00:24:05;;;;;;;3.00;2.90;;;20.60;99.90;;;20.79;83.00;101688.16;5041994;28;20042;-74
2023/08/24 00:26:33;;;;;;;2.78;2.67;;;20.50;99.90;;;20.71;83.55;101684.84;5033899;28;20495;-72
2023/08/24 00:29:02;;;;;;;2.78;2.67;;;20.40;99.90;;;20.60;83.79;101687.88;5040266;28;20049;-73
2023/08/24 00:31:30;;;;;;;2.70;2.60;;;20.30;99.90;;;20.48;84.57;101695.44;5041805;28;20497;-73
2023/08/24 00:34:00;;;;;;;2.67;2.58;;;20.10;99.90;;;20.31;85.06;101687.94;5050886;28;20048;-74
2023/08/24 00:36:28;;;;;;;3.58;3.38;;;20.00;99.90;;;20.05;86.43;101685.16;5050401;28;20045;-73
2023/08/24 00:38:56;;;;;;;2.60;2.50;;;19.70;99.90;;;19.84;87.96;101682.22;5044104;28;20487;-73
2023/08/24 00:41:26;;;;;;;3.13;3.03;;;19.50;99.90;;;19.84;88.71;101677.69;5041553;28;20080;-73
2023/08/24 00:43:54;;;;;;;3.00;2.90;;;19.40;99.90;;;19.86;88.97;101675.00;5044697;28;20556;-73
2023/08/24 00:46:26;;;;;;;2.50;2.40;;;19.40;99.90;;;19.99;88.77;101681.75;5041644;28;20045;-73
2023/08/24 00:48:56;;;;;;;2.35;2.25;;;19.50;99.90;;;19.99;88.80;101687.13;5033739;28;20046;-73
2023/08/24 00:51:25;;;;;;;2.75;2.65;;;19.50;99.90;;;20.11;88.85;101687.63;5033707;28;20054;-73
2023/08/24 00:53:54;;;;;;;2.83;2.72;;;19.60;99.90;;;20.26;88.34;101703.34;5037451;28;20434;-73
2023/08/24 00:56:24;;;;;;;3.08;2.97;;;19.80;99.90;;;20.52;86.83;101705.19;5042172;28;20395;-72
2023/08/24 00:58:56;;;;;;;2.47;2.38;;;20.00;99.90;;;20.48;86.02;101703.50;5042526;28;20048;-71
2023/08/24 01:01:24;;;;;;;3.20;3.10;;;20.10;99.90;;;20.45;86.30;101698.25;5044822;28;20049;-73
2023/08/24 01:03:53;;;;;;;2.92;2.83;;;20.00;99.90;;;20.40;86.63;101687.63;5041612;28;20757;-73
2023/08/24 01:06:22;;;;;;;4.22;3.92;;;20.00;99.90;;;20.40;86.35;101668.81;5040683;28;20124;-74
2023/08/24 01:08:51;;;;;;;2.97;2.88;;;20.10;99.90;;;20.35;86.97;101651.97;5043758;28;20033;-73
2023/08/24 01:11:34;;;;;;;3.15;3.05;;;20.00;99.90;;;20.38;86.81;101651.00;5041650;28;20046;-74
2023/08/24 01:14:14;;;;;;;3.15;3.05;;;20.00;99.90;;;20.46;86.85;101671.31;5041433;28;20447;-74
2023/08/24 01:16:46;;;;;;;3.17;3.08;;;20.00;99.90;;;20.18;86.70;101629.22;5042118;28;20041;-73
2023/08/24 01:19:35;;;;;;;2.85;2.75;;;20.10;99.90;;;20.20;88.05;101668.59;5042498;28;20055;-73
2023/08/24 01:22:11;;;;;;;3.08;2.97;;;19.80;99.90;;;20.17;88.43;101668.63;5032948;28;20486;-74
2023/08/24 01:24:46;;;;;;;2.80;2.70;;;19.80;99.90;;;20.06;89.00;101649.28;5033392;28;20063;-73
2023/08/24 01:27:16;;;;;;;3.47;3.33;;;19.70;99.90;;;19.85;90.86;101651.72;5041064;28;20057;-73
2023/08/24 01:29:44;;;;;;;3.42;3.22;;;19.50;99.90;;;20.07;90.35;101666.28;5050288;28;20410;-73
2023/08/24 01:32:13;;;;;;;3.00;2.90;;;19.60;99.90;;;20.25;89.33;101679.16;5041738;28;20522;-73
2023/08/24 01:34:41;;;;;;;3.22;3.13;;;19.80;99.90;;;20.28;89.14;101679.09;5043103;28;20139;-73
2023/08/24 01:37:10;;;;;;;4.57;4.28;;;19.90;99.90;;;19.98;90.57;101664.75;5042805;28;20084;-73
2023/08/24 01:39:47;;;;;;;2.95;2.85;;;19.70;99.90;;;19.97;91.47;101660.31;5042208;28;20055;-69
2023/08/24 01:42:28;;;;;;;3.08;2.90;;;19.60;99.90;;;19.76;91.95;101653.75;5032817;28;20045;-74
2023/08/24 01:44:59;;;;;;;3.05;2.95;;;19.40;99.90;;;19.52;94.11;101648.25;5039048;28;20418;-72
2023/08/24 01:47:30;;;;;;;5.78;3.80;;;19.20;99.90;;;19.21;96.11;101634.78;5035783;28;20053;-73
2023/08/24 01:49:58;;;;;;;;;;;18.90;99.90;;;19.05;97.51;101637.94;5048553;28;20107;-73
2023/08/24 01:52:28;;;;;;;4.03;3.78;;;18.70;99.90;;;19.06;98.20;101615.53;5052170;28;19971;-73
2023/08/24 01:54:56;;;;;;;4.18;3.60;;;18.60;99.90;;;19.01;98.99;101620.16;5041042;28;20049;-73
2023/08/24 01:57:27;;;;;;;4.20;4.00;;;18.60;99.90;;;19.06;99.04;101602.13;5042110;28;20037;-72
2023/08/24 01:59:56;;;;;;;3.42;3.33;;;18.60;99.90;;;19.13;99.08;101603.72;5042347;28;20395;-74
2023/08/24 02:02:25;;;;;;;3.65;3.45;;;18.60;99.90;;;19.21;98.15;101599.00;5041249;28;20048;-74
2023/08/24 02:04:54;;;;;;;3.07;2.97;;;18.80;99.90;;;19.35;97.83;101595.06;5042977;28;20050;-73
2023/08/24 02:07:24;;;;;;;3.53;3.35;;;18.90;99.90;;;19.42;97.38;101577.84;5040969;28;20054;-73
2023/08/24 02:09:52;;;;;;;3.22;3.13;;;19.00;99.90;;;19.45;97.50;101571.53;5043220;28;20059;-73
2023/08/24 02:12:20;;;;;;;3.30;3.20;;;19.10;99.90;;;19.52;96.90;101555.19;5038505;28;20133;-73
2023/08/24 02:14:50;;;;;;;4.45;4.10;;;19.20;99.90;;;19.20;98.47;101557.03;5038719;28;20065;-73
2023/08/24 02:17:19;;;;;;;3.53;3.42;;;18.90;99.90;;;19.05;99.73;101552.13;5043002;28;20048;-73
2023/08/24 02:19:47;;;;;;;4.50;3.20;;;18.70;99.90;;;19.11;100.00;101557.28;5039354;28;20084;-74
2023/08/24 02:22:15;;;;;;;3.75;3.47;;;18.70;99.90;;;19.22;99.73;101557.88;5041932;28;20376;-72
2023/08/24 02:24:44;;;;;;;3.80;3.60;;;18.80;99.90;;;19.14;99.56;101574.19;5049247;28;20057;-71
2023/08/24 02:27:12;;;;;;;3.58;3.38;;;18.80;99.90;;;19.12;100.00;101557.25;5040388;28;20045;-73
2023/08/24 02:29:41;;;;;;;3.83;3.63;;;18.70;99.90;;;19.27;99.35;101566.66;5042715;28;20045;-73
2023/08/24 02:32:10;;;;;;;3.00;2.90;;;18.90;99.90;;;19.43;98.51;101568.00;5039816;28;20053;-73
2023/08/24 02:34:39;;;;;;;2.90;2.80;;;19.00;99.90;;;19.67;97.50;101567.25;5043597;28;20123;-74
2023/08/24 02:37:08;;;;;;;2.77;2.67;;;19.20;99.90;;;19.71;96.95;101579.66;5043731;28;20060;-73
2023/08/24 02:39:37;;;;;;;2.88;2.78;;;19.40;99.90;;;19.94;96.01;101579.81;5040463;28;20312;-73
2023/08/24 02:42:06;;;;;;;2.97;2.88;;;19.60;99.90;;;20.06;95.39;101571.38;5046342;28;20107;-72
2023/08/24 02:44:34;;;;;;;2.88;2.78;;;19.70;99.90;;;20.18;94.30;101568.34;5045249;28;20503;-74
2023/08/24 02:47:05;;;;;;;2.80;2.70;;;19.80;99.90;;;20.06;93.92;101559.75;5045963;28;20395;-74
2023/08/24 02:49:35;;;;;;;2.78;2.67;;;19.80;99.90;;;20.03;94.29;101547.31;5053420;28;20057;-73
2023/08/24 02:52:04;;;;;;;3.67;3.47;;;19.80;99.90;;;19.92;94.56;101549.44;5044645;28;20057;-74
2023/08/24 02:54:32;;;;;;;3.45;3.35;;;19.60;99.90;;;19.86;95.17;101541.59;5054189;28;20122;-73
2023/08/24 02:57:01;;;;;;;2.90;2.80;;;19.60;99.90;;;19.88;95.68;101536.19;5051042;28;20049;-72
2023/08/24 02:59:29;;;;;;;3.35;3.25;;;19.50;99.90;;;19.96;95.47;101535.00;5047546;28;20073;-73
2023/08/24 03:01:58;;;;;;;3.08;2.97;;;19.60;99.90;;;19.88;95.08;101536.19;5045618;28;20098;-73
2023/08/24 03:04:26;;;;;;;3.83;3.63;;;19.50;99.90;;;19.73;95.99;101529.47;5043395;28;20152;-74
2023/08/24 03:06:56;;;;;;;3.72;3.53;;;19.40;99.90;;;19.55;97.57;101522.88;5044847;28;20561;-73
2023/08/24 03:09:25;;;;;;;3.15;2.97;;;19.20;99.90;;;19.61;97.19;101530.75;5045367;28;20045;-74
2023/08/24 03:11:53;;;;;;;3.22;2.95;;;19.20;99.90;;;19.68;96.74;101526.06;5044998;28;20041;-73
2023/08/24 03:14:22;;;;;;;4.22;3.92;;;19.30;99.90;;;19.79;96.35;101531.97;5045997;28;20076;-74
2023/08/24 03:16:50;;;;;;;3.13;3.03;;;19.40;99.90;;;19.90;95.50;101523.59;5043419;28;20134;-74
2023/08/24 03:19:18;;;;;;;3.05;2.85;;;19.50;99.90;;;19.96;95.08;101523.38;5046115;28;20048;-73
2023/08/24 03:21:47;;;;;;;2.60;2.50;;;19.60;99.90;;;19.97;94.84;101520.66;5042578;28;20045;-74
2023/08/24 03:24:18;;;;;;;2.70;2.60;;;19.60;99.90;;;20.24;94.46;101518.88;5041617;28;20065;-74
2023/08/24 03:26:46;;;;;;;2.85;2.75;;;19.80;99.90;;;20.45;93.42;101527.09;5045877;28;20074;-73
2023/08/24 03:29:15;;;;;;;2.53;2.42;;;20.10;99.90;;;20.63;92.59;101521.06;5044375;28;20048;-73
2023/08/24 03:31:45;;;;;;;2.60;2.50;;;20.30;99.90;;;20.78;91.83;101524.16;5044625;28;20552;-73
2023/08/24 03:34:13;;;;;;;2.50;2.40;;;20.40;99.90;;;20.90;90.51;101524.59;5045606;28;20048;-74
2023/08/24 03:36:42;;;;;;;3.17;3.08;;;20.60;99.90;;;20.99;89.70;101529.63;5050839;28;20049;-74
2023/08/24 03:39:11;;;;;;;2.63;2.53;;;20.70;99.90;;;21.08;89.24;101531.16;5044414;28;20076;-73
2023/08/24 03:41:41;;;;;;;2.70;2.60;;;20.80;99.90;;;21.17;88.65;101528.13;5049858;28;20049;-71
2023/08/24 03:44:09;;;;;;;2.93;2.83;;;20.90;99.90;;;21.18;87.79;101524.47;5043059;28;20049;-72
2023/08/24 03:46:37;;;;;;;2.75;2.65;;;20.90;99.90;;;21.24;87.21;101518.84;5045847;28;20045;-73
2023/08/24 03:49:06;;;;;;;2.97;2.88;;;20.90;99.90;;;21.33;87.00;101529.28;5050437;28;20076;-73
2023/08/24 03:51:35;;;;;;;2.80;2.70;;;21.00;99.90;;;21.38;86.49;101524.59;5044535;28;20132;-73
2023/08/24 03:54:05;;;;;;;2.88;2.78;;;21.10;99.90;;;21.43;85.90;101525.28;5042381;28;20053;-73
2023/08/24 03:56:33;;;;;;;2.70;2.60;;;21.10;99.90;;;21.49;85.84;101519.66;5050709;28;20049;-73
2023/08/24 03:59:03;;;;;;;3.28;3.13;;;21.20;99.90;;;21.51;85.50;101524.06;5043543;28;20132;-73
2023/08/24 04:01:31;;;;;;;4.20;4.00;;;21.20;99.90;;;21.55;85.27;101527.50;5050084;28;20514;-74
2023/08/24 04:04:01;;;;;;;13.50;3.33;;;21.30;99.90;;;21.60;84.92;101530.94;5053198;28;20056;-73
2023/08/24 04:06:30;;;;;;;2.63;2.53;;;21.30;99.90;;;21.64;84.67;101532.53;5040945;28;20037;-73
2023/08/24 04:08:58;;;;;;;2.50;2.40;;;21.30;99.90;;;21.69;84.64;101527.84;5045660;28;20486;-73
2023/08/24 04:11:27;;;;;;;2.65;2.55;;;21.40;99.90;;;21.65;84.62;101528.91;5042892;28;20057;-73
2023/08/24 04:13:55;;;;;;;3.03;2.83;;;21.30;99.90;;;21.68;84.11;101526.09;5043736;28;20057;-73
2023/08/24 04:16:25;;;;;;;3.50;3.30;;;21.40;99.90;;;21.55;84.33;101519.44;5042393;28;20107;-73
2023/08/24 04:18:53;;;;;;;3.13;3.00;;;21.30;99.90;;;20.79;87.89;101523.22;5043760;28;20498;-73
2023/08/24 04:21:21;;;;;;;4.20;3.80;;;20.60;99.90;;;20.11;91.85;101514.81;5044562;28;20042;-73
2023/08/24 04:23:50;;;;;;;4.03;3.72;;;19.90;99.90;;;19.80;94.78;101510.44;5043557;28;20104;-73
2023/08/24 04:26:18;;;;;;;2.70;2.60;;;19.40;99.90;;;19.91;95.18;101509.22;5044998;28;20135;-73
2023/08/24 04:28:46;;;;;;;2.70;2.58;;;19.40;99.90;;;20.12;94.28;101501.34;5041036;28;20084;-73
2023/08/24 04:31:15;;;;;;;3.85;3.65;;;19.60;99.90;;;20.24;93.43;101506.34;5033891;28;20411;-73
2023/08/24 04:33:45;;;;;;;3.05;2.95;;;19.90;99.90;;;20.29;92.99;101506.16;5033825;28;20072;-73
2023/08/24 04:36:13;;;;;;;2.67;2.57;;;19.90;99.90;;;20.25;93.52;101504.50;5033721;28;20108;-72
2023/08/24 04:38:41;;;;;;;4.32;4.13;;;19.90;99.90;;;20.19;94.06;101502.06;5037578;28;20091;-73
2023/08/24 04:41:12;;;;;;;3.08;2.97;;;19.90;99.90;;;20.04;94.27;101499.81;5042181;28;20071;-73
2023/08/24 04:43:40;;;;;;;6.35;5.78;;;19.70;99.90;;;20.06;94.67;101495.28;5043269;28;20037;-73
2023/08/24 04:46:08;;;;;;;4.47;4.18;;;19.70;99.90;;;20.04;94.64;101495.34;5044227;28;20053;-73
2023/08/24 04:48:37;;;;;;;3.40;3.20;;;19.80;99.90;;;20.02;95.03;101483.75;5041954;28;20454;-72
2023/08/24 04:51:06;;;;;;;3.80;3.47;;;19.70;99.90;;;19.95;95.13;101484.03;5044092;28;20056;-72
2023/08/24 04:53:35;;;;;;;3.37;3.27;;;19.60;99.90;;;19.81;96.27;101481.78;5033163;28;20528;-72
2023/08/24 04:56:03;;;;;;;3.58;3.38;;;19.50;99.90;;;19.79;96.66;101480.97;5032624;28;20128;-72
2023/08/24 04:58:34;;;;;;;2.97;2.88;;;19.50;99.90;;;20.04;96.18;101479.22;5032914;28;20037;-72
2023/08/24 05:01:03;;;;;;;2.85;2.75;;;19.60;99.90;;;20.20;95.83;101471.56;5033063;28;20041;-73
2023/08/24 05:03:32;;;;;;;2.95;2.85;;;19.90;99.90;;;20.32;94.96;101463.06;5042465;28;20464;-73
2023/08/24 05:06:00;;;;;;;2.92;2.83;;;20.00;99.90;;;20.25;94.58;101465.09;5049677;28;20053;-72
2023/08/24 05:08:30;;;;;;;3.97;3.78;;;20.00;99.90;;;20.08;94.98;101448.63;5043466;28;20069;-73
2023/08/24 05:10:58;;;;;;;3.25;3.15;;;19.90;99.90;;;19.89;96.06;101439.44;5041224;28;20088;-73
2023/08/24 05:13:26;;;;;;;2.80;2.70;;;19.60;99.90;;;19.94;96.66;101439.31;5044125;28;20053;-73
2023/08/24 05:15:55;;;;;;;2.92;2.83;;;19.60;99.90;;;19.86;96.95;101441.38;5048031;28;20050;-73
2023/08/24 05:18:23;;;;;;;4.15;3.95;;;19.60;99.90;;;19.75;97.36;101437.22;5031117;28;20041;-73
2023/08/24 05:20:51;;;;;;;3.30;3.20;;;19.50;99.90;;;19.73;97.83;101440.88;5032695;28;20076;-73
2023/08/24 05:23:20;;;;;;;3.47;3.38;;;19.50;99.90;;;19.95;97.39;101439.25;5032878;28;20049;-73
2023/08/24 05:25:49;;;;;;;2.55;2.45;;;19.60;99.90;;;20.08;96.89;101445.06;5036543;28;20072;-72
2023/08/24 05:28:18;;;;;;;2.80;2.70;;;19.70;99.90;;;20.18;96.70;101447.44;5042701;28;20095;-72
2023/08/24 05:30:46;;;;;;;3.10;3.00;;;19.80;99.90;;;20.21;95.92;101441.94;5042395;28;20496;-73
2023/08/24 05:33:14;;;;;;;3.17;3.08;;;19.90;99.90;;;20.38;95.77;101441.38;5043209;28;20049;-73
2023/08/24 05:35:43;;;;;;;2.88;2.78;;;20.10;99.90;;;20.57;95.32;101439.78;5041491;28;20049;-73
2023/08/24 05:38:11;;;;;;;3.75;3.45;;;20.20;99.90;;;19.94;94.23;101324.69;5043653;28;20049;-73
2023/08/24 05:40:41;;;;;;;3.05;2.85;;;20.30;99.90;;;20.80;94.16;101439.81;5040987;28;20111;-73
2023/08/24 05:43:11;;;;;;;2.95;2.85;;;20.50;99.90;;;20.80;93.31;101429.03;5033285;28;20133;-73
2023/08/24 05:45:40;;;;;;;2.80;2.70;;;20.50;99.90;;;20.86;92.96;101398.34;5032717;28;20119;-73
2023/08/24 05:48:08;;;;;;;3.95;3.65;;;20.70;99.90;;;21.15;92.15;101431.31;5040824;28;20049;-72
2023/08/24 05:50:38;;;;;;;3.00;2.90;;;20.90;99.90;;;21.23;91.77;101425.63;5042584;28;20115;-73
2023/08/24 05:53:06;;;;;;;3.50;3.20;;;21.00;99.90;;;21.24;91.18;101422.84;5042576;28;20049;-73
2023/08/24 05:55:35;;;;;;;2.63;2.53;;;21.00;99.90;;;21.34;90.26;101424.25;5041801;28;20087;-72
2023/08/24 05:58:03;;;;;;;2.95;2.85;;;21.00;99.90;;;21.33;90.32;101422.47;5042878;28;20033;-73
2023/08/24 06:00:34;;;;;;;3.42;3.25;;;21.10;99.90;;;21.41;90.55;101414.09;5046959;28;20487;-73
2023/08/24 06:03:03;;;;;;;2.70;2.60;;;21.10;99.90;;;21.16;91.08;101410.63;5039958;28;20045;-73
2023/08/24 06:05:32;;;;;;;3.38;3.17;;;21.00;99.90;;;21.24;91.35;101405.81;5043158;28;20037;-73
2023/08/24 06:08:00;;;;;;;4.93;4.70;;;20.90;99.90;;;21.50;91.45;101402.97;5040862;28;20064;-73
2023/08/24 06:10:30;;;;;;;3.00;2.90;;;21.10;99.90;;;21.53;91.12;101392.97;5042756;28;20049;-73
2023/08/24 06:13:01;;;;;;;3.50;3.40;;;21.10;99.90;;;21.55;90.25;101387.50;5042375;28;20049;-73
2023/08/24 06:15:29;;;;;;;3.25;3.05;;;21.20;99.90;;;21.64;90.11;101379.03;5043591;28;20084;-73
2023/08/24 06:18:00;;;;;;;2.30;2.20;;;21.30;99.90;;;21.81;89.59;101387.34;5047209;28;20076;-73
2023/08/24 06:20:29;;;;;;;2.78;2.67;;;21.40;99.90;;;21.81;89.22;101381.94;5051710;28;20106;-72
2023/08/24 06:22:57;;;;;;;4.43;4.03;;;21.50;99.90;;;21.84;88.55;101380.91;5035941;28;20041;-73
2023/08/24 06:25:26;;;;;;;3.03;2.85;;;21.50;99.90;;;21.39;92.46;101365.72;5042962;28;20061;-72
2023/08/24 06:27:54;;;;;;;3.08;2.97;;;21.10;99.90;;;21.38;93.79;101361.28;5041072;28;20069;-72
2023/08/24 06:30:22;;;;;;;3.92;3.63;;;21.00;99.90;;;21.25;93.36;101361.84;5046791;28;20096;-73
2023/08/24 06:32:50;;;;;;;3.08;2.95;;;20.90;99.90;;;21.33;93.95;101357.88;5045566;28;20125;-74
2023/08/24 06:35:20;;;;;;;3.88;3.65;;;20.90;99.90;;;21.48;93.65;101368.06;5045884;28;20049;-73
2023/08/24 06:37:49;;;;;;;5.60;4.70;;;21.00;99.90;;;21.29;92.94;101376.94;5046260;28;20073;-73
2023/08/24 06:40:18;;;;;;;3.65;3.45;;;21.00;99.90;;;21.47;94.50;101387.81;5044741;28;20291;-73
2023/08/24 06:42:46;;;;;;;3.33;3.13;;;21.00;99.90;;;21.47;92.97;101392.31;5047574;28;20063;-74
2023/08/24 06:45:15;;;;;;;3.60;3.40;;;21.10;99.90;;;21.76;93.80;101394.69;5043923;28;20045;-74
2023/08/24 06:47:43;;;;;;;4.88;4.47;;;21.30;99.90;;;21.58;91.88;101390.09;5035720;28;20558;-73
2023/08/24 06:50:12;;;;;;;5.90;5.22;;;21.30;99.90;;;21.45;92.21;101384.31;5036131;28;20058;-74
2023/08/24 06:52:42;;;;;;;2.85;2.75;;;21.20;99.90;;;21.90;92.65;101370.78;5035852;28;20399;-74
2023/08/24 06:55:11;;;;;;;3.55;3.35;;;21.50;99.90;;;22.25;89.96;101375.50;5035544;28;20511;-72
2023/08/24 06:57:40;;;;;;;3.00;2.70;;;21.80;99.90;;;22.27;89.64;101381.69;5043524;28;20103;-74
2023/08/24 07:00:12;;;;;;;5.95;5.45;;;21.90;99.90;;;22.05;88.96;101380.00;5046816;28;20049;-74
2023/08/24 07:02:41;;;;;;;6.40;5.80;;;21.70;99.90;;;22.00;90.34;101369.44;5046929;28;20169;-74
2023/08/24 07:05:12;;;;;;;3.40;3.15;;;21.60;99.90;;;22.08;88.67;101380.75;5049296;28;20057;-73
2023/08/24 07:07:43;;;;;;;4.25;3.92;;;21.80;99.90;;;22.17;89.19;101379.47;5050541;28;20048;-74
2023/08/24 07:10:11;;;;;;;4.57;4.30;;;21.80;99.90;;;22.01;90.36;101387.34;5047202;28;20565;-74
2023/08/24 07:12:40;;;;;;;4.15;3.80;;;21.60;99.90;;;22.18;91.06;101382.09;5047521;28;20049;-73
2023/08/24 07:15:10;;;;;;;4.28;3.97;;;21.70;99.90;;;21.84;89.50;101298.28;5044517;28;20062;-73
2023/08/24 07:17:38;;;;;;;4.28;3.88;;;21.90;99.90;;;22.52;89.69;101375.19;5044036;28;20116;-74
2023/08/24 07:20:08;;;;;;;3.38;3.15;;;22.00;99.90;;;22.63;86.81;101379.19;5045747;28;20040;-74
2023/08/24 07:22:37;;;;;;;3.22;3.13;;;22.20;99.90;;;22.51;87.79;101368.94;5043418;28;20490;-74
2023/08/24 07:25:08;;;;;;;4.60;4.20;;;22.10;99.90;;;22.56;85.88;101374.09;5046657;28;20123;-74
2023/08/24 07:27:37;;;;;;;4.07;3.78;;;22.20;99.90;;;22.49;86.94;101372.66;5034630;28;20128;-74
2023/08/24 07:30:07;;;;;;;5.90;5.40;;;22.10;99.90;;;22.41;87.76;101370.31;5035073;28;20076;-73
2023/08/24 07:32:56;;;;;;;6.43;5.75;;;22.00;99.90;;;22.36;88.47;101372.31;5043178;28;20073;-74
2023/08/24 07:35:26;;;;;;;5.63;5.13;;;21.90;99.90;;;22.27;88.01;101351.16;5045849;28;20059;-74
2023/08/24 07:37:55;;;;;;;5.90;5.40;;;21.90;99.90;;;22.40;89.06;101358.63;5044701;28;20487;-74
2023/08/24 07:40:26;;;;;;;3.08;2.88;;;21.90;99.90;;;22.52;88.95;101359.00;5051632;28;20072;-73
2023/08/24 07:42:56;;;;;;;6.38;4.82;;;22.00;99.90;;;22.56;88.02;101355.22;5045319;28;20111;-74
2023/08/24 07:45:25;;;;;;;3.67;3.38;;;22.10;99.90;;;22.59;88.72;101360.53;5043464;28;20049;-74
2023/08/24 07:47:55;;;;;;;15.13;4.05;;;22.20;99.90;;;22.88;88.07;101355.50;5046323;28;20044;-73
2023/08/24 07:50:24;;;;;;;13.60;5.70;;;22.40;99.90;;;22.59;86.75;101363.22;5042965;28;20045;-73
2023/08/24 07:52:52;;;;;;;2.80;2.70;;;22.20;99.90;;;22.63;87.78;101367.53;5045607;28;20099;-74
2023/08/24 07:55:26;;;;;;;5.85;5.13;;;22.20;99.90;;;22.44;87.93;101346.75;5044178;28;20376;-74
2023/08/24 07:57:55;;;;;;;10.45;5.30;;;22.10;99.90;;;22.34;88.54;101352.63;5050987;28;20383;-74
2023/08/24 08:00:24;;;;;;;5.60;5.20;;;22.00;99.90;;;22.26;89.60;101352.97;5044898;28;20099;-73
2023/08/24 08:02:53;;;;;;;3.47;3.27;;;21.80;99.90;;;22.37;90.39;101349.81;5043305;28;20470;-73
2023/08/24 08:05:22;;;;;;;8.82;6.65;;;21.90;99.90;;;22.34;90.25;101349.94;5046097;28;20041;-74
2023/08/24 08:07:50;;;;;;;11.52;3.70;;;21.90;99.90;;;22.55;90.97;101337.31;5034248;28;20038;-74
2023/08/24 08:10:21;;;;;;;6.32;5.88;;;22.00;99.90;;;22.47;90.67;101329.56;5034181;28;20045;-73
2023/08/24 08:12:50;;;;;;;10.15;6.22;;;22.00;99.90;;;22.57;90.16;101328.22;5032683;28;20075;-73
2023/08/24 08:15:19;;;;;;;7.28;5.50;;;22.20;99.90;;;22.47;90.58;101337.66;5035221;28;20197;-73
2023/08/24 08:17:48;;;;;;;6.15;5.57;;;22.10;99.90;;;22.42;91.09;101329.78;5043505;28;20049;-74
2023/08/24 08:20:17;;;;;;;6.03;5.47;;;22.00;99.90;;;22.45;91.27;101321.53;5039428;28;20089;-74
2023/08/24 08:22:45;;;;;;;6.28;5.32;;;22.00;99.90;;;22.51;91.41;101316.81;5044335;28;20529;-73
2023/08/24 08:25:14;;;;;;;4.97;4.57;;;22.00;99.90;;;22.59;91.42;101315.53;5041973;28;20046;-72
2023/08/24 08:27:42;;;;;;;15.73;5.03;;;22.10;99.90;;;22.69;90.42;101307.88;5051998;28;20103;-73
2023/08/24 08:30:14;;;;;;;8.25;6.00;;;22.20;99.90;;;22.66;91.45;101291.84;5033365;28;20127;-74
2023/08/24 08:32:42;;;;;;;5.55;4.97;;;22.20;99.90;;;22.51;92.34;101254.81;5038313;28;20054;-73
2023/08/24 08:35:11;;;;;;;5.32;4.82;;;22.30;99.90;;;22.62;91.96;101285.75;5044199;28;20509;-74
2023/08/24 08:37:39;;;;;;;5.95;4.80;;;22.20;99.90;;;22.74;93.14;101285.16;5042995;28;20562;-72
2023/08/24 08:40:12;;;;;;;4.40;4.10;;;22.30;99.90;;;22.81;91.86;101285.72;5042755;28;20041;-73
2023/08/24 08:42:41;;;;;;;4.13;3.92;;;22.30;99.90;;;22.93;90.84;101285.13;5052130;28;20080;-73
2023/08/24 08:45:12;;;;;;;7.47;5.38;;;22.50;99.90;;;22.88;89.71;101285.34;5041879;28;20118;-73
2023/08/24 08:47:42;;;;;;;3.33;3.13;;;22.40;99.90;;;23.08;91.19;101290.66;5041564;28;20049;-73
2023/08/24 08:50:11;;;;;;;5.05;4.43;;;22.50;99.90;;;23.21;89.91;101285.50;5046228;28;20517;-73
2023/08/24 08:52:39;;;;;;;4.00;3.80;;;22.70;99.90;;;23.31;89.44;101289.53;5045247;28;20049;-73
2023/08/24 08:55:10;;;;;;;2.25;2.15;;;22.90;99.90;;;23.46;90.07;101280.66;5046025;28;20099;-73
2023/08/24 08:57:42;;;;;;;4.45;4.07;;;23.00;99.90;;;23.46;90.00;101279.81;5053391;28;20053;-74
2023/08/24 09:00:14;;;;;;;2.83;2.63;;;23.00;99.90;;;23.40;89.19;101275.59;5041722;28;20128;-73
2023/08/24 09:02:46;;;;;;;3.97;3.67;;;23.00;99.90;;;23.55;88.21;101276.63;5041583;28;20045;-73
2023/08/24 09:05:16;;;;;;;3.35;3.22;;;23.10;99.90;;;23.69;89.13;101271.41;5044135;28;20036;-74
2023/08/24 09:07:45;;;;;;;4.87;4.43;;;23.20;99.90;;;23.77;87.66;101278.13;5042547;28;20053;-73
2023/08/24 09:10:14;;;;;;;2.63;2.53;;;23.30;99.90;;;23.74;87.24;101277.41;5043058;28;20091;-74
2023/08/24 09:12:42;;;;;;;2.20;2.10;;;23.30;99.90;;;24.02;86.12;101278.63;5044280;28;20049;-73
2023/08/24 09:15:13;;;;;;;2.08;1.98;;;23.60;99.90;;;24.17;85.62;101279.63;5044714;28;20057;-74
2023/08/24 09:17:44;;;;;;;;;;;23.70;99.90;;;24.35;85.32;101294.00;5046606;28;20079;-73
2023/08/24 09:20:15;;;;;;;2.03;1.92;;;23.90;99.90;;;24.63;84.59;101307.75;5035674;28;19925;-72
2023/08/24 09:22:44;;;;;;;2.30;2.20;;;24.20;99.90;;;24.83;83.21;101303.00;5036199;28;20478;-73
2023/08/24 09:25:13;;;;;;;2.10;2.00;;;24.50;99.90;;;25.01;82.19;101309.19;5035442;28;20574;-72
2023/08/24 09:27:41;;;;;;;1.60;1.60;;;24.70;99.90;;;25.15;81.68;101305.69;5036016;28;20099;-74
2023/08/24 09:30:13;;;;;;;2.20;2.10;;;24.90;99.90;;;25.31;81.25;101315.56;5041765;28;20412;-74
2023/08/24 09:32:43;;;;;;;1.92;1.83;;;25.00;99.90;;;25.44;80.36;101310.31;5043851;28;20044;-74
2023/08/24 09:35:12;;;;;;;1.98;1.88;;;25.20;99.90;;;25.51;79.68;101303.59;5041190;28;20120;-74
2023/08/24 09:37:45;;;;;;;1.85;1.80;;;25.20;99.90;;;25.64;79.11;101308.19;5032644;28;20045;-73
2023/08/24 09:40:13;;;;;;;1.98;1.90;;;25.30;99.90;;;25.68;78.89;101298.03;5032115;28;20041;-74
2023/08/24 09:42:43;;;;;;;1.50;1.50;;;25.40;99.90;;;25.39;77.93;101310.63;5031748;28;20477;-74
2023/08/24 09:45:15;;;;;;;1.50;1.50;;;25.20;99.90;;;25.22;77.24;101278.19;5038631;28;20503;-74
2023/08/24 09:47:49;;;;;;;2.00;1.90;;;25.20;99.90;;;25.32;76.21;101294.78;5041558;28;20813;-74
2023/08/24 09:50:18;;;;;;;2.40;2.30;;;25.10;99.90;;;25.28;78.01;101315.72;5031565;28;20053;-74
2023/08/24 09:52:49;;;;;;;3.75;3.35;;;25.00;99.90;;;24.85;82.15;101297.50;5038416;28;20049;-74
2023/08/24 09:55:22;;;;;;;4.68;3.75;;;24.60;99.90;;;24.46;85.94;101314.09;5041240;28;20406;-74
2023/08/24 09:57:55;;;;;;;3.13;2.92;;;24.10;99.90;;;24.30;86.84;101317.69;5041875;28;20052;-73
2023/08/24 10:00:27;;;;;;;5.30;3.92;;;23.80;99.90;;;24.09;87.89;101322.44;5043344;28;20049;-74
2023/08/24 10:02:56;;;;;;;3.53;3.33;;;23.60;99.90;;;23.91;89.37;101324.22;5040440;28;20049;-72
2023/08/24 10:05:25;;;;;;;2.33;2.22;;;23.50;99.90;;;23.83;90.74;101325.56;5040338;28;20052;-74
2023/08/24 10:07:57;;;;;;;2.55;2.45;;;23.30;99.90;;;23.80;91.31;101321.22;5043039;28;20037;-74
2023/08/24 10:10:28;;;;;;;5.20;4.75;;;23.30;99.90;;;23.85;92.24;101308.34;5042067;28;20562;-74
2023/08/24 10:13:05;;;;;;;3.67;3.38;;;23.40;99.90;;;23.64;93.80;101295.06;5041336;28;20077;-73
2023/08/24 10:15:37;;;;;;;4.18;3.85;;;23.20;99.90;;;23.07;94.08;101215.19;5032084;28;20064;-74
2023/08/24 10:18:07;;;;;;;2.13;2.03;;;23.10;99.90;;;23.69;93.71;101284.91;5040805;28;20491;-74
2023/08/24 10:20:36;;;;;;;;;;;23.20;99.90;;;23.73;92.35;101278.38;5049875;28;20511;-74
2023/08/24 10:23:05;;;;;;;5.00;3.42;;;23.30;99.90;;;23.82;93.06;101278.78;5042166;28;19925;-74